createdAt,value
2023-01-06T00:01:16.377Z,101558.97
2023-01-06T00:03:44.424Z,101554.50
2023-01-06T00:06:13.481Z,101558.91
2023-01-06T00:08:41.355Z,101563.28
2023-01-06T00:11:10.001Z,101564.09
2023-01-06T00:13:38.144Z,101564.06
2023-01-06T00:16:09.323Z,101559.81
2023-01-06T00:18:37.352Z,101557.00
2023-01-06T00:21:05.552Z,101570.81
2023-01-06T00:23:33.910Z,101555.25
2023-01-06T00:26:02.089Z,101551.09
2023-01-06T00:28:30.186Z,101558.03
2023-01-06T00:30:58.214Z,101554.59
2023-01-06T00:33:27.512Z,101556.38
2023-01-06T00:35:59.697Z,101551.22
2023-01-06T00:38:27.551Z,101546.94
2023-01-06T00:40:55.380Z,101540.00
2023-01-06T00:43:23.238Z,101536.47
2023-01-06T00:45:51.192Z,101556.34
2023-01-06T00:48:19.206Z,101534.84
2023-01-06T00:50:48.423Z,101540.00
2023-01-06T00:53:16.861Z,101540.84
2023-01-06T00:55:44.705Z,101544.34
2023-01-06T00:58:12.512Z,101539.97
2023-01-06T01:00:40.388Z,101543.41
2023-01-06T01:03:08.256Z,101546.91
2023-01-06T01:05:36.304Z,101546.00
2023-01-06T01:08:05.892Z,101557.22
2023-01-06T01:10:34.359Z,101550.19
2023-01-06T01:13:02.174Z,101548.63
2023-01-06T01:15:30.125Z,101540.84
2023-01-06T01:17:57.976Z,101541.63
2023-01-06T01:20:26.010Z,101539.03
2023-01-06T01:22:54.118Z,101532.25
2023-01-06T01:25:23.353Z,101537.47
2023-01-06T01:27:51.219Z,101537.31
2023-01-06T01:30:20.989Z,101533.97
2023-01-06T01:32:49.053Z,101521.91
2023-01-06T01:35:17.191Z,101530.53
2023-01-06T01:37:45.040Z,101520.25
2023-01-06T01:40:13.406Z,101519.34
2023-01-06T01:42:42.647Z,101520.25
2023-01-06T01:45:19.168Z,101532.28
2023-01-06T01:47:51.021Z,101524.56
2023-01-06T01:50:25.867Z,101523.69
2023-01-06T01:52:56.002Z,101528.66
2023-01-06T01:55:25.224Z,101521.84
2023-01-06T01:57:57.074Z,101521.94
2023-01-06T02:00:25.550Z,101514.22
2023-01-06T02:02:53.608Z,101513.34
2023-01-06T02:05:24.731Z,101505.63
2023-01-06T02:07:54.629Z,101513.31
2023-01-06T02:10:24.812Z,101495.28
2023-01-06T02:12:58.425Z,101493.56
2023-01-06T02:15:31.036Z,101501.31
2023-01-06T02:18:30.806Z,101505.56
2023-01-06T02:21:11.139Z,101503.88
2023-01-06T02:24:14.518Z,101497.00
2023-01-06T02:27:00.980Z,101491.75
2023-01-06T02:30:01.904Z,101489.97
2023-01-06T02:32:49.891Z,101487.41
2023-01-06T02:35:29.362Z,101472.84
2023-01-06T02:38:05.131Z,101484.06
2023-01-06T02:40:46.303Z,101484.06
2023-01-06T02:43:18.265Z,101478.88
2023-01-06T02:45:51.077Z,101478.88
2023-01-06T02:48:28.493Z,101476.31
2023-01-06T02:51:02.649Z,101478.84
2023-01-06T02:53:37.059Z,101470.31
2023-01-06T02:56:05.437Z,101462.53
2023-01-06T02:58:36.699Z,101454.78
2023-01-06T03:01:12.575Z,101462.56
2023-01-06T03:03:44.158Z,101458.97
2023-01-06T03:06:15.069Z,101464.22
2023-01-06T03:08:47.533Z,101463.41
2023-01-06T03:11:16.153Z,101461.72
2023-01-06T03:13:47.938Z,101454.78
2023-01-06T03:16:16.567Z,101460.78
2023-01-06T03:18:48.901Z,101455.63
2023-01-06T03:21:21.987Z,101451.38
2023-01-06T03:23:49.882Z,101452.25
2023-01-06T03:26:17.730Z,101445.34
2023-01-06T03:28:46.782Z,101437.63
2023-01-06T03:31:24.309Z,101434.97
2023-01-06T03:33:58.142Z,101433.22
2023-01-06T03:36:31.485Z,101432.44
2023-01-06T03:39:05.662Z,101424.47
2023-01-06T03:41:55.164Z,101422.94
2023-01-06T03:44:33.337Z,101420.38
2023-01-06T03:47:06.692Z,101419.47
2023-01-06T03:49:40.425Z,101412.63
2023-01-06T03:52:13.001Z,101410.03
2023-01-06T03:54:48.001Z,101414.38
2023-01-06T03:57:18.225Z,101407.50
2023-01-06T03:59:48.693Z,101404.69
2023-01-06T04:02:17.353Z,101398.88
2023-01-06T04:05:02.014Z,101396.28
2023-01-06T04:07:31.417Z,101396.28
2023-01-06T04:09:59.383Z,101392.75
2023-01-06T04:12:44.189Z,101397.97
2023-01-06T04:15:17.687Z,101401.38
2023-01-06T04:17:48.022Z,101392.75
2023-01-06T04:20:20.834Z,101395.19
2023-01-06T04:22:50.992Z,101396.28
2023-01-06T04:25:19.352Z,101402.34
2023-01-06T04:27:47.157Z,101400.47
2023-01-06T04:30:15.179Z,101387.69
2023-01-06T04:32:45.019Z,101383.34
2023-01-06T04:35:13.080Z,101379.13
2023-01-06T04:37:42.389Z,101384.22
2023-01-06T04:40:13.298Z,101372.94
2023-01-06T04:42:58.719Z,101367.78
2023-01-06T04:45:26.678Z,101361.88
2023-01-06T04:47:54.478Z,101365.16
2023-01-06T04:50:22.392Z,101361.00
2023-01-06T04:52:51.598Z,101353.81
2023-01-06T04:55:19.651Z,101354.91
2023-01-06T04:57:47.512Z,101349.81
2023-01-06T05:00:16.357Z,101342.63
2023-01-06T05:02:44.411Z,101339.38
2023-01-06T05:05:12.591Z,101333.47
2023-01-06T05:07:40.549Z,101326.59
2023-01-06T05:10:11.445Z,101330.00
2023-01-06T05:12:39.492Z,101327.41
2023-01-06T05:15:08.665Z,101321.47
2023-01-06T05:17:36.593Z,101321.47
2023-01-06T05:20:05.019Z,101317.16
2023-01-06T05:22:32.843Z,101316.19
2023-01-06T05:25:00.708Z,101312.63
2023-01-06T05:27:32.296Z,101314.59
2023-01-06T05:30:00.169Z,101309.34
2023-01-06T05:32:28.006Z,101308.41
2023-01-06T05:34:55.783Z,101308.41
2023-01-06T05:37:23.601Z,101306.81
2023-01-06T05:39:51.431Z,101308.50
2023-01-06T05:42:19.277Z,101316.31
2023-01-06T05:44:48.496Z,101297.19
2023-01-06T05:47:16.304Z,101291.03
2023-01-06T05:49:44.203Z,101287.78
2023-01-06T05:52:12.019Z,101285.38
2023-01-06T05:54:40.498Z,101278.47
2023-01-06T05:57:09.868Z,101275.78
2023-01-06T05:59:37.785Z,101280.16
2023-01-06T06:02:06.982Z,101272.44
2023-01-06T06:04:34.845Z,101278.38
2023-01-06T06:07:02.742Z,101278.88
2023-01-06T06:09:30.567Z,101271.91
2023-01-06T06:11:58.455Z,101267.13
2023-01-06T06:14:26.759Z,101272.25
2023-01-06T06:16:55.546Z,101272.97
2023-01-06T06:19:24.865Z,101268.66
2023-01-06T06:21:54.030Z,101268.13
2023-01-06T06:24:21.877Z,101264.66
2023-01-06T06:26:49.825Z,101260.31
2023-01-06T06:29:17.674Z,101259.53
2023-01-06T06:31:45.643Z,101251.72
2023-01-06T06:34:14.379Z,101250.88
2023-01-06T06:36:43.599Z,101249.91
2023-01-06T06:39:11.438Z,101262.13
2023-01-06T06:41:39.350Z,101252.66
2023-01-06T06:44:07.188Z,101246.63
2023-01-06T06:46:35.003Z,101235.31
2023-01-06T06:49:02.850Z,101230.09
2023-01-06T06:51:31.612Z,101237.16
2023-01-06T06:54:00.800Z,101228.03
2023-01-06T06:56:28.622Z,101225.66
2023-01-06T06:58:56.564Z,101226.47
2023-01-06T07:01:24.505Z,101230.53
2023-01-06T07:03:52.474Z,101238.00
2023-01-06T07:06:22.502Z,101226.03
2023-01-06T07:08:51.429Z,101222.44
2023-01-06T07:11:21.076Z,101215.00
2023-01-06T07:13:49.381Z,101213.50
2023-01-06T07:16:18.103Z,101213.38
2023-01-06T07:18:46.139Z,101214.69
2023-01-06T07:21:13.952Z,101223.97
2023-01-06T07:23:41.756Z,101214.66
2023-01-06T07:26:11.726Z,101222.50
2023-01-06T07:28:40.963Z,101218.78
2023-01-06T07:31:08.797Z,101211.16
2023-01-06T07:33:36.719Z,101221.09
2023-01-06T07:36:04.939Z,101223.34
2023-01-06T07:38:32.826Z,101226.78
2023-01-06T07:41:01.493Z,101220.31
2023-01-06T07:43:29.687Z,101214.13
2023-01-06T07:45:59.056Z,101205.22
2023-01-06T07:48:26.959Z,101212.13
2023-01-06T07:50:55.119Z,101211.03
2023-01-06T07:53:23.156Z,101221.25
2023-01-06T07:55:54.471Z,101222.22
2023-01-06T07:58:23.844Z,101218.16
2023-01-06T08:00:51.803Z,101226.84
2023-01-06T08:03:21.088Z,101227.28
2023-01-06T08:05:48.948Z,101217.78
2023-01-06T08:08:17.139Z,101221.38
2023-01-06T08:10:45.040Z,101202.06
2023-01-06T08:13:12.889Z,101202.34
2023-01-06T08:15:40.894Z,101203.13
2023-01-06T08:18:09.401Z,101200.25
2023-01-06T08:20:38.604Z,101198.38
2023-01-06T08:23:06.540Z,101197.47
2023-01-06T08:25:34.450Z,101196.22
2023-01-06T08:28:02.813Z,101198.63
2023-01-06T08:30:30.905Z,101208.16
2023-01-06T08:33:02.164Z,101192.94
2023-01-06T08:35:32.977Z,101176.16
2023-01-06T08:38:02.234Z,101174.16
2023-01-06T08:40:30.051Z,101163.94
2023-01-06T08:42:57.861Z,101178.66
2023-01-06T08:45:25.775Z,101179.84
2023-01-06T08:47:53.588Z,101185.75
2023-01-06T08:50:21.603Z,101189.91
2023-01-06T08:52:49.501Z,101164.66
2023-01-06T08:55:18.724Z,101161.28
2023-01-06T08:57:46.650Z,101154.06
2023-01-06T09:00:15.753Z,101152.91
2023-01-06T09:02:43.631Z,101153.47
2023-01-06T09:05:11.760Z,101148.75
2023-01-06T09:07:39.697Z,101135.91
2023-01-06T09:10:08.452Z,101141.66
2023-01-06T09:12:37.610Z,101150.25
2023-01-06T09:15:07.043Z,101148.03
2023-01-06T09:17:34.889Z,101159.50
2023-01-06T09:20:02.877Z,101169.53
2023-01-06T09:22:32.087Z,101178.22
2023-01-06T09:24:59.973Z,101176.19
2023-01-06T09:27:28.193Z,101168.22
2023-01-06T09:29:57.420Z,101166.72
2023-01-06T09:32:25.282Z,101154.00
2023-01-06T09:34:53.133Z,101142.09
2023-01-06T09:37:21.056Z,101132.84
2023-01-06T09:39:48.869Z,101139.47
2023-01-06T09:42:29.100Z,101139.56
2023-01-06T09:44:59.874Z,101136.28
2023-01-06T09:47:30.452Z,101128.13
2023-01-06T09:50:01.817Z,101126.81
2023-01-06T09:52:36.297Z,101114.25
2023-01-06T09:55:07.718Z,101118.69
2023-01-06T09:57:39.320Z,101107.19
2023-01-06T10:00:18.334Z,101114.31
2023-01-06T10:02:47.350Z,101103.94
2023-01-06T10:05:22.389Z,101092.06
2023-01-06T10:07:57.648Z,101093.84
2023-01-06T10:10:32.472Z,101086.25
2023-01-06T10:13:22.952Z,101074.72
2023-01-06T10:15:57.336Z,101074.66
2023-01-06T10:18:32.924Z,101069.25
2023-01-06T10:21:10.131Z,101069.72
2023-01-06T10:23:52.656Z,101054.97
2023-01-06T10:26:27.656Z,101059.63
2023-01-06T10:28:56.100Z,101060.28
2023-01-06T10:31:28.964Z,101045.22
2023-01-06T10:33:58.328Z,101041.28
2023-01-06T10:36:31.211Z,101043.78
2023-01-06T10:38:59.383Z,101033.31
2023-01-06T10:41:39.054Z,101030.06
2023-01-06T10:44:09.764Z,101031.69
2023-01-06T10:46:39.247Z,101018.59
2023-01-06T10:49:11.515Z,101024.06
2023-01-06T10:51:40.699Z,101028.19
2023-01-06T10:54:10.839Z,101018.81
2023-01-06T10:56:40.006Z,101021.09
2023-01-06T10:59:09.346Z,101017.75
2023-01-06T11:01:50.239Z,101012.06
2023-01-06T11:04:19.903Z,101007.63
2023-01-06T11:06:51.662Z,101014.38
2023-01-06T11:09:31.476Z,101013.53
2023-01-06T11:12:01.417Z,101013.00
2023-01-06T11:14:31.167Z,101017.97
2023-01-06T11:17:02.399Z,101004.28
2023-01-06T11:19:38.802Z,101003.75
2023-01-06T11:22:07.356Z,100997.06
2023-01-06T11:24:50.216Z,100998.91
2023-01-06T11:27:18.523Z,100993.97
2023-01-06T11:29:46.664Z,100980.19
2023-01-06T11:32:18.007Z,100986.69
2023-01-06T11:34:53.380Z,100981.75
2023-01-06T11:37:32.009Z,100976.09
2023-01-06T11:40:10.316Z,100971.69
2023-01-06T11:45:31.189Z,100981.81
2023-01-06T11:48:00.471Z,100970.16
2023-01-06T11:50:28.418Z,100967.47
2023-01-06T11:53:00.346Z,100970.78
2023-01-06T11:55:28.520Z,100974.09
2023-01-06T11:58:00.932Z,100974.19
2023-01-06T12:00:38.066Z,100972.34
2023-01-06T12:03:15.737Z,100972.56
2023-01-06T12:05:51.323Z,100973.03
2023-01-06T12:08:21.597Z,100958.59
2023-01-06T12:10:54.331Z,100957.03
2023-01-06T12:13:22.227Z,100959.06
2023-01-06T12:15:56.262Z,100944.06
2023-01-06T12:18:29.122Z,100951.63
2023-01-06T12:20:58.245Z,100948.47
2023-01-06T12:23:28.059Z,100954.00
2023-01-06T12:26:01.553Z,100937.69
2023-01-06T12:28:32.643Z,100952.25
2023-01-06T12:31:06.584Z,100933.16
2023-01-06T12:33:39.573Z,100925.09
2023-01-06T12:36:14.577Z,100931.47
2023-01-06T12:38:47.504Z,100924.78
2023-01-06T12:41:18.303Z,100921.41
2023-01-06T12:43:53.295Z,100926.47
2023-01-06T12:46:26.010Z,100929.72
2023-01-06T12:48:57.855Z,100929.31
2023-01-06T12:51:29.326Z,100928.56
2023-01-06T12:54:01.753Z,100916.09
2023-01-06T12:56:41.161Z,100914.66
2023-01-06T12:59:17.759Z,100918.81
2023-01-06T13:01:49.029Z,100925.47
2023-01-06T13:04:41.644Z,100920.19
2023-01-06T13:07:12.980Z,100932.47
2023-01-06T13:09:54.329Z,100918.94
2023-01-06T13:12:35.507Z,100912.94
2023-01-06T13:15:06.924Z,100925.16
2023-01-06T13:17:44.525Z,100931.38
2023-01-06T13:20:18.765Z,100922.25
2023-01-06T13:22:53.427Z,100927.69
2023-01-06T13:25:42.666Z,100929.50
2023-01-06T13:28:18.343Z,100934.72
2023-01-06T13:30:59.025Z,100932.94
2023-01-06T13:34:04.134Z,100933.28
2023-01-06T13:36:44.939Z,100931.16
2023-01-06T13:39:15.190Z,100934.88
2023-01-06T13:41:46.652Z,100941.25
2023-01-06T13:44:16.685Z,100948.22
2023-01-06T13:46:46.898Z,100951.63
2023-01-06T13:49:15.545Z,100944.84
2023-01-06T13:51:45.825Z,100953.66
2023-01-06T13:54:51.091Z,100953.13
2023-01-06T13:57:28.632Z,100957.63
2023-01-06T14:00:16.292Z,100978.63
2023-01-06T14:03:16.223Z,100964.84
2023-01-06T14:05:52.732Z,100953.22
2023-01-06T14:08:22.676Z,100961.44
2023-01-06T14:10:58.474Z,100968.56
2023-01-06T14:13:28.867Z,100969.91
2023-01-06T14:15:58.487Z,100982.94
2023-01-06T14:18:36.400Z,100978.53
2023-01-06T14:21:07.087Z,100992.47
2023-01-06T14:23:36.811Z,100987.28
2023-01-06T14:26:04.968Z,100992.22
2023-01-06T14:28:34.144Z,100990.97
2023-01-06T14:31:41.526Z,100993.16
2023-01-06T14:34:12.275Z,100990.13
2023-01-06T14:36:41.224Z,100988.81
2023-01-06T14:39:20.473Z,100997.06
2023-01-06T14:41:54.438Z,101003.66
2023-01-06T14:44:27.863Z,100996.03
2023-01-06T14:46:58.578Z,100995.28
2023-01-06T14:49:28.768Z,101004.44
2023-01-06T14:51:59.133Z,101000.91
2023-01-06T14:54:30.912Z,100999.66
2023-01-06T14:57:00.439Z,100998.91
2023-01-06T14:59:28.564Z,101002.19
2023-01-06T15:02:00.258Z,101008.09
2023-01-06T15:04:31.150Z,101010.03
2023-01-06T15:07:15.544Z,101019.13
2023-01-06T15:09:44.945Z,101016.28
2023-01-06T15:12:24.207Z,101016.03
2023-01-06T15:14:52.135Z,101027.53
2023-01-06T15:17:20.140Z,101025.56
2023-01-06T15:19:49.103Z,101011.34
2023-01-06T15:22:20.808Z,101017.94
2023-01-06T15:24:52.879Z,101026.06
2023-01-06T15:27:20.825Z,101021.78
2023-01-06T15:29:52.738Z,101034.38
2023-01-06T15:32:21.577Z,101037.44
2023-01-06T15:34:50.907Z,101038.44
2023-01-06T15:37:20.919Z,101042.22
2023-01-06T15:39:50.523Z,101046.38
2023-01-06T15:42:20.944Z,101053.09
2023-01-06T15:44:56.703Z,101066.22
2023-01-06T15:47:29.584Z,101060.16
2023-01-06T15:50:02.168Z,101073.50
2023-01-06T15:52:32.709Z,101063.97
2023-01-06T15:55:05.216Z,101077.53
2023-01-06T15:57:36.151Z,101076.94
2023-01-06T16:00:07.815Z,101073.44
2023-01-06T16:02:35.803Z,101084.16
2023-01-06T16:05:06.160Z,101068.97
2023-01-06T16:07:39.109Z,101069.63
2023-01-06T16:10:35.453Z,101073.34
2023-01-06T16:13:17.130Z,101087.03
2023-01-06T16:15:47.010Z,101090.34
2023-01-06T16:18:15.127Z,101088.63
2023-01-06T16:20:43.201Z,101100.88
2023-01-06T16:23:20.153Z,101092.41
2023-01-06T16:25:47.942Z,101093.69
2023-01-06T16:28:20.730Z,101098.09
2023-01-06T16:31:07.648Z,101105.09
2023-01-06T16:33:39.015Z,101107.06
2023-01-06T16:36:14.582Z,101105.59
2023-01-06T16:38:42.675Z,101113.09
2023-01-06T16:41:15.624Z,101111.63
2023-01-06T16:43:45.345Z,101117.44
2023-01-06T16:46:18.543Z,101116.97
2023-01-06T16:48:46.432Z,101121.66
2023-01-06T16:51:18.646Z,101117.06
2023-01-06T16:53:47.828Z,101110.91
2023-01-06T16:56:22.008Z,101111.44
2023-01-06T16:58:51.801Z,101112.34
2023-01-06T17:01:21.648Z,101120.34
2023-01-06T17:03:53.426Z,101117.06
2023-01-06T17:06:22.913Z,101131.09
2023-01-06T17:08:51.376Z,101130.28
2023-01-06T17:11:20.433Z,101133.53
2023-01-06T17:13:53.589Z,101137.81
2023-01-06T17:16:27.019Z,101140.28
2023-01-06T17:19:00.258Z,101145.66
2023-01-06T17:21:30.063Z,101148.22
2023-01-06T17:24:00.252Z,101152.72
2023-01-06T17:26:28.638Z,101161.13
2023-01-06T17:28:58.524Z,101160.28
2023-01-06T17:31:35.537Z,101175.97
2023-01-06T17:34:11.702Z,101174.50
2023-01-06T17:36:40.973Z,101173.75
2023-01-06T17:39:15.695Z,101177.91
2023-01-06T17:41:43.784Z,101178.34
2023-01-06T17:44:17.746Z,101184.72
2023-01-06T17:46:46.121Z,101187.94
2023-01-06T17:49:35.453Z,101194.13
2023-01-06T17:52:15.194Z,101192.88
2023-01-06T17:55:07.104Z,101194.13
2023-01-06T17:57:35.135Z,101188.94
2023-01-06T18:00:17.934Z,101192.66
2023-01-06T18:02:48.052Z,101199.81
2023-01-06T18:05:49.481Z,101207.63
2023-01-06T18:08:18.229Z,101205.94
2023-01-06T18:10:50.952Z,101207.03
2023-01-06T18:13:20.099Z,101213.16
2023-01-06T18:15:51.868Z,101207.63
2023-01-06T18:18:21.182Z,101217.88
2023-01-06T18:20:49.196Z,101217.53
2023-01-06T18:23:18.149Z,101213.31
2023-01-06T18:25:46.044Z,101213.69
2023-01-06T18:28:17.041Z,101218.59
2023-01-06T18:30:46.058Z,101208.28
2023-01-06T18:33:17.605Z,101218.28
2023-01-06T18:35:46.776Z,101209.16
2023-01-06T18:38:14.547Z,101214.59
2023-01-06T18:40:42.935Z,101215.19
2023-01-06T18:43:22.007Z,101213.25
2023-01-06T18:45:52.174Z,101212.53
2023-01-06T18:48:29.552Z,101218.06
2023-01-06T18:50:58.434Z,101217.94
2023-01-06T18:53:28.495Z,101217.59
2023-01-06T18:55:58.209Z,101216.25
2023-01-06T18:58:38.804Z,101215.34
2023-01-06T19:01:14.450Z,101218.13
2023-01-06T19:03:50.928Z,101226.44
2023-01-06T19:06:37.895Z,101222.63
2023-01-06T19:09:22.846Z,101224.31
2023-01-06T19:12:03.636Z,101228.13
2023-01-06T19:14:35.902Z,101228.59
2023-01-06T19:17:04.219Z,101227.00
2023-01-06T19:19:38.701Z,101229.72
2023-01-06T19:22:20.769Z,101236.31
2023-01-06T19:24:50.969Z,101233.13
2023-01-06T19:27:33.564Z,101244.72
2023-01-06T19:30:31.587Z,101237.34
2023-01-06T19:33:00.688Z,101241.59
2023-01-06T19:35:31.005Z,101239.25
2023-01-06T19:38:00.841Z,101240.38
2023-01-06T19:40:31.297Z,101253.91
2023-01-06T19:43:00.882Z,101252.00
2023-01-06T19:45:30.664Z,101252.72
2023-01-06T19:47:59.798Z,101259.94
2023-01-06T19:50:32.070Z,101267.88
2023-01-06T19:53:00.502Z,101254.25
2023-01-06T19:55:30.028Z,101248.59
2023-01-06T19:58:01.297Z,101265.47
2023-01-06T20:00:31.650Z,101254.66
2023-01-06T20:03:01.743Z,101265.50
2023-01-06T20:05:32.317Z,101264.47
2023-01-06T20:08:00.184Z,101261.84
2023-01-06T20:10:28.054Z,101264.78
2023-01-06T20:12:56.057Z,101267.78
2023-01-06T20:15:23.911Z,101273.84
2023-01-06T20:17:51.790Z,101278.88
2023-01-06T20:20:19.709Z,101274.47
2023-01-06T20:22:48.921Z,101286.25
2023-01-06T20:25:17.180Z,101286.72
2023-01-06T20:27:44.999Z,101281.81
2023-01-06T20:30:13.140Z,101285.25
2023-01-06T20:32:41.130Z,101285.34
2023-01-06T20:35:10.285Z,101286.06
2023-01-06T20:37:39.474Z,101283.28
2023-01-06T20:40:09.851Z,101287.34
2023-01-06T20:42:37.704Z,101283.84
2023-01-06T20:45:06.513Z,101279.50
2023-01-06T20:47:34.377Z,101285.91
2023-01-06T20:50:02.307Z,101288.16
2023-01-06T20:52:30.078Z,101280.75
2023-01-06T20:55:01.239Z,101280.06
2023-01-06T20:57:30.646Z,101279.94
2023-01-06T20:59:58.467Z,101283.59
2023-01-06T21:02:26.404Z,101291.00
2023-01-06T21:04:54.243Z,101290.97
2023-01-06T21:07:22.103Z,101285.75
2023-01-06T21:09:49.899Z,101292.34
2023-01-06T21:12:17.779Z,101301.19
2023-01-06T21:14:47.109Z,101305.41
2023-01-06T21:17:15.031Z,101303.25
2023-01-06T21:19:42.792Z,101301.88
2023-01-06T21:22:10.647Z,101292.69
2023-01-06T21:24:38.403Z,101308.66
2023-01-06T21:27:06.271Z,101301.38
2023-01-06T21:29:34.057Z,101301.94
2023-01-06T21:32:03.299Z,101302.06
2023-01-06T21:34:31.066Z,101297.25
2023-01-06T21:36:58.853Z,101302.41
2023-01-06T21:39:26.871Z,101310.16
2023-01-06T21:42:11.849Z,101312.81
2023-01-06T21:44:39.686Z,101305.91
2023-01-06T21:47:10.053Z,101302.41
2023-01-06T21:49:38.289Z,101297.72
2023-01-06T21:52:06.775Z,101295.38
2023-01-06T21:54:34.629Z,101306.56
2023-01-06T21:57:02.446Z,101307.00
2023-01-06T21:59:30.311Z,101305.66
2023-01-06T22:01:58.293Z,101318.66
2023-01-06T22:04:27.576Z,101321.88
2023-01-06T22:06:57.646Z,101316.34
2023-01-06T22:09:25.832Z,101322.31
2023-01-06T22:11:54.182Z,101319.50
2023-01-06T22:14:22.424Z,101310.03
2023-01-06T22:16:52.285Z,101317.59
2023-01-06T22:19:20.380Z,101316.81
2023-01-06T22:21:49.574Z,101319.91
2023-01-06T22:24:18.354Z,101311.38
2023-01-06T22:26:46.473Z,101314.00
2023-01-06T22:29:14.436Z,101318.66
2023-01-06T22:31:42.300Z,101314.19
2023-01-06T22:34:10.128Z,101322.78
2023-01-06T22:36:38.057Z,101324.72
2023-01-06T22:39:08.517Z,101323.03
2023-01-06T22:41:36.462Z,101324.19
2023-01-06T22:44:04.362Z,101326.38
2023-01-06T22:46:32.517Z,101323.66
2023-01-06T22:49:00.337Z,101330.94
2023-01-06T22:51:28.604Z,101331.97
2023-01-06T22:53:56.949Z,101325.34
2023-01-06T22:56:26.168Z,101317.72
2023-01-06T22:58:53.951Z,101319.03
2023-01-06T23:01:22.205Z,101330.28
2023-01-06T23:03:50.363Z,101325.19
2023-01-06T23:06:18.289Z,101327.97
2023-01-06T23:08:59.114Z,101327.13
2023-01-06T23:11:31.331Z,101328.69
2023-01-06T23:13:59.746Z,101320.28
2023-01-06T23:16:29.817Z,101323.28
2023-01-06T23:18:57.909Z,101321.91
2023-01-06T23:21:27.306Z,101318.44
2023-01-06T23:23:55.242Z,101317.31
2023-01-06T23:26:25.084Z,101306.34
2023-01-06T23:28:54.950Z,101304.19
2023-01-06T23:31:24.855Z,101302.53
2023-01-06T23:33:55.727Z,101293.19
2023-01-06T23:36:25.477Z,101292.63
2023-01-06T23:38:53.539Z,101307.94
2023-01-06T23:41:22.950Z,101313.50
2023-01-06T23:43:51.075Z,101313.69
2023-01-06T23:46:22.065Z,101317.22
2023-01-06T23:48:52.024Z,101323.00
2023-01-06T23:51:19.927Z,101328.78
2023-01-06T23:53:47.727Z,101322.75
2023-01-06T23:56:16.643Z,101323.50
2023-01-06T23:58:46.055Z,101330.13
